Time;durP1;ratioP1;P1;durP2;ratioP2;P2;SDS_P1;SDS_P2;PMS_P1;PMS_P2;Temp;Humidity;BMP_temperature;BMP_pressure;BME280_temperature;BME280_humidity;BME280_pressure;Samples;Min_cycle;Max_cycle;Signal;HPM_P1;HPM_P2
2020/12/30 00:00:46;;;;;;;17.40;8.90;;;;;;;0.81;88.88;97149.88;4937561;29;20055;-77
2020/12/30 00:03:12;;;;;;;18.98;10.32;;;;;;;0.74;89.18;97159.25;4950071;29;20090;-77
2020/12/30 00:05:37;;;;;;;14.93;9.32;;;;;;;0.61;89.57;97153.38;4934377;29;20104;-77
2020/12/30 00:08:05;;;;;;;16.92;9.75;;;;;;;0.69;89.58;97161.00;4934627;29;20461;-77
2020/12/30 00:10:31;;;;;;;16.20;8.90;;;;;;;0.64;90.17;97158.47;4933982;29;20027;-78
2020/12/30 00:12:56;;;;;;;18.92;10.20;;;;;;;0.88;90.86;97154.94;4934012;29;20581;-78
2020/12/30 00:15:22;;;;;;;20.60;9.45;;;;;;;0.79;89.86;97157.53;4934257;29;20367;-78
2020/12/30 00:17:47;;;;;;;16.73;8.75;;;;;;;0.85;89.06;97161.75;4934812;29;20119;-78
2020/12/30 00:20:16;;;;;;;14.65;8.73;;;;;;;0.83;89.27;97164.31;4934678;29;20527;-78
2020/12/30 00:22:42;;;;;;;10.93;5.30;;;;;;;1.09;88.00;97156.50;4937340;29;20508;-77
2020/12/30 00:25:08;;;;;;;10.98;5.47;;;;;;;1.19;87.72;97153.00;4938736;29;20441;-78
2020/12/30 00:27:34;;;;;;;12.30;6.47;;;;;;;1.21;87.37;97151.31;4938556;29;20032;-78
2020/12/30 00:30:00;;;;;;;9.25;6.13;;;;;;;1.26;87.07;97164.03;4938676;29;20077;-78
2020/12/30 00:32:26;;;;;;;11.35;7.00;;;;;;;1.11;87.08;97164.97;4938293;29;20020;-77
2020/12/30 00:34:51;;;;;;;13.73;8.13;;;;;;;1.07;87.59;97167.56;4938269;29;20115;-78
2020/12/30 00:37:16;;;;;;;14.55;7.90;;;;;;;1.03;88.09;97169.28;4938548;29;20049;-78
2020/12/30 00:39:42;;;;;;;12.93;7.88;;;;;;;1.09;87.69;97176.91;4938393;29;20027;-77
2020/12/30 00:42:07;;;;;;;15.85;8.23;;;;;;;0.70;89.38;97168.63;4938088;29;20024;-77
2020/12/30 00:44:33;;;;;;;13.20;7.30;;;;;;;0.80;88.56;97178.78;4938297;29;20020;-78
2020/12/30 00:46:58;;;;;;;14.40;8.18;;;;;;;0.85;88.85;97177.03;4938122;29;20123;-77
2020/12/30 00:49:25;;;;;;;12.65;7.68;;;;;;;0.89;88.72;97178.72;4938130;29;20111;-78
2020/12/30 00:51:53;;;;;;;14.88;7.65;;;;;;;0.87;88.81;97175.31;4937926;29;20031;-77
2020/12/30 00:54:20;;;;;;;12.25;6.78;;;;;;;0.98;89.10;97174.41;4938135;29;20039;-77
2020/12/30 00:56:46;;;;;;;22.38;10.27;;;;;;;1.05;88.44;97180.31;4937984;29;20123;-78
2020/12/30 00:59:12;;;;;;;11.57;6.50;;;;;;;1.01;88.05;97183.72;4938116;29;20366;-77
2020/12/30 07:02:08;;;;;;;12.55;7.45;;;;;;;0.92;88.24;97436.19;5229483;23;20046;-75
2020/12/30 07:04:37;;;;;;;7.82;4.22;;;;;;;1.03;88.27;97442.16;4956709;28;20484;-76
2020/12/30 07:07:20;;;;;;;7.55;4.43;;;;;;;0.87;89.11;97440.47;4956981;28;20022;-76
2020/12/30 07:09:45;;;;;;;6.40;4.15;;;;;;;0.96;88.35;97450.66;4974061;28;20113;-76
2020/12/30 07:12:10;;;;;;;5.93;4.40;;;;;;;0.83;88.57;97449.00;4957558;28;20026;-76
2020/12/30 07:14:37;;;;;;;6.78;3.92;;;;;;;0.89;88.13;97459.16;4954535;29;20035;-76
2020/12/30 07:17:04;;;;;;;5.28;4.03;;;;;;;1.06;88.81;97465.06;4955297;29;20027;-71
2020/12/30 07:19:34;;;;;;;5.28;3.30;;;;;;;1.04;87.71;97456.59;4954759;29;20042;-71
2020/12/30 07:22:08;;;;;;;6.30;3.47;;;;;;;1.06;88.26;97466.78;4954571;28;20027;-71
2020/12/30 07:24:53;;;;;;;9.35;3.58;;;;;;;0.97;88.03;97470.22;4954530;29;20019;-71
2020/12/30 07:27:20;;;;;;;5.93;3.75;;;;;;;1.10;86.76;97476.97;4937462;29;20448;-71
2020/12/30 07:29:47;;;;;;;7.15;3.53;;;;;;;1.25;86.79;97476.09;4954503;29;20038;-71
2020/12/30 07:32:14;;;;;;;7.20;3.17;;;;;;;1.21;85.98;97482.06;4953628;28;20374;-71
2020/12/30 07:34:48;;;;;;;3.58;2.60;;;;;;;1.36;84.83;97482.03;4954350;29;20082;-71
2020/12/30 07:37:15;;;;;;;3.40;2.38;;;;;;;1.48;84.39;97486.25;4954430;29;20030;-71
2020/12/30 07:39:43;;;;;;;4.75;2.25;;;;;;;1.42;84.84;97493.94;4954356;29;20027;-71
2020/12/30 07:42:21;;;;;;;3.08;2.72;;;;;;;1.43;85.11;97499.03;4954034;28;20392;-71
2020/12/30 07:44:48;;;;;;;6.97;3.42;;;;;;;1.41;84.28;97494.78;4954396;29;20050;-71
2020/12/30 07:47:14;;;;;;;4.13;2.50;;;;;;;1.58;83.49;97494.72;4954191;29;20038;-71
2020/12/30 07:49:40;;;;;;;3.20;2.55;;;;;;;1.73;82.17;97497.22;4954221;29;20069;-71
2020/12/30 07:52:06;;;;;;;3.72;2.30;;;;;;;1.90;81.53;97502.28;4953824;28;20059;-71
2020/12/30 07:54:32;;;;;;;4.55;2.58;;;;;;;2.01;80.89;97497.97;4954119;29;20023;-71
2020/12/30 07:57:06;;;;;;;4.47;1.95;;;;;;;2.22;79.90;97497.84;4954118;29;20035;-71
2020/12/30 07:59:33;;;;;;;3.90;2.00;;;;;;;2.49;77.50;97499.38;4954113;29;20081;-71
2020/12/30 08:01:59;;;;;;;4.00;2.47;;;;;;;2.68;78.29;97507.78;4953703;28;20042;-71
2020/12/30 08:04:25;;;;;;;6.03;3.10;;;;;;;2.41;79.83;97508.78;4954045;29;20034;-71
2020/12/30 08:06:51;;;;;;;4.13;3.17;;;;;;;2.43;80.16;97516.47;4953951;29;20086;-71
2020/12/30 08:09:17;;;;;;;7.65;3.97;;;;;;;2.56;80.90;97507.84;4954026;29;20167;-71
2020/12/30 08:11:50;;;;;;;8.52;4.38;;;;;;;2.81;78.89;97513.66;4953564;28;20137;-71
2020/12/30 08:14:16;;;;;;;4.82;3.58;;;;;;;2.91;78.56;97514.44;4953989;29;20027;-71
2020/12/30 08:16:57;;;;;;;7.85;4.13;;;;;;;2.94;78.19;97520.34;4953819;29;20027;-71
2020/12/30 08:19:42;;;;;;;9.88;4.18;;;;;;;2.66;79.91;97517.19;4953904;29;20027;-71
2020/12/30 08:22:10;;;;;;;6.85;3.78;;;;;;;3.10;78.03;97526.22;4953540;28;20473;-71
2020/12/30 08:24:47;;;;;;;6.72;4.60;;;;;;;3.10;77.81;97521.09;4953961;29;20380;-71
2020/12/30 08:27:17;;;;;;;6.57;3.85;;;;;;;3.08;77.81;97522.81;4953869;29;20428;-71
2020/12/30 08:29:43;;;;;;;6.95;5.25;;;;;;;3.00;78.08;97516.91;4953851;29;20090;-71
2020/12/30 08:32:19;;;;;;;7.30;3.97;;;;;;;3.02;77.65;97523.72;4953490;28;20038;-71
2020/12/30 08:34:48;;;;;;;5.45;4.05;;;;;;;3.33;76.66;97525.97;4953713;29;20023;-71
2020/12/30 08:37:21;;;;;;;6.30;3.25;;;;;;;3.52;74.98;97519.81;4953655;29;20035;-71
2020/12/30 08:39:52;;;;;;;4.97;3.55;;;;;;;4.35;73.40;97519.69;4953750;29;20037;-71
2020/12/30 08:42:32;;;;;;;7.45;3.17;;;;;;;4.75;71.92;97524.25;4954033;28;20365;-71
2020/12/30 08:45:02;;;;;;;6.55;4.13;;;;;;;4.79;71.79;97535.31;4957601;29;20176;-71
2020/12/30 08:47:36;;;;;;;5.45;4.03;;;;;;;4.24;72.58;97536.91;4957385;29;20066;-71
2020/12/30 08:50:02;;;;;;;4.80;3.50;;;;;;;3.58;75.07;97549.66;4957564;29;20027;-71
2020/12/30 08:52:28;;;;;;;6.40;3.85;;;;;;;3.39;76.02;97554.09;4957048;28;20031;-71
2020/12/30 08:55:03;;;;;;;8.70;4.60;;;;;;;3.52;76.13;97549.69;4957480;29;20046;-71
2020/12/30 08:57:29;;;;;;;11.07;4.90;;;;;;;3.33;76.75;97552.44;4957249;29;20440;-71
2020/12/30 09:00:13;;;;;;;5.53;4.03;;;;;;;3.32;77.11;97555.84;4940187;29;20403;-71
2020/12/30 09:02:38;;;;;;;5.82;3.92;;;;;;;3.16;76.87;97556.88;4956841;29;20035;-71
2020/12/30 09:05:03;;;;;;;12.32;4.40;;;;;;;2.91;77.44;97555.38;4957196;29;20074;-71
2020/12/30 09:07:29;;;;;;;6.00;4.47;;;;;;;2.95;77.92;97559.56;4957041;29;20384;-71
2020/12/30 09:10:04;;;;;;;11.10;4.57;;;;;;;3.44;76.75;97556.63;4957167;29;20037;-71
2020/12/30 09:12:30;;;;;;;8.20;4.20;;;;;;;3.07;76.92;97559.50;4956789;28;20027;-71
2020/12/30 09:14:55;;;;;;;10.45;5.00;;;;;;;3.23;77.23;97568.72;4956925;29;20035;-71
2020/12/30 09:17:20;;;;;;;5.07;4.18;;;;;;;2.95;77.52;97572.38;4956778;29;20047;-71
2020/12/30 09:19:46;;;;;;;7.65;4.53;;;;;;;3.05;77.63;97569.75;4939719;29;20034;-71
2020/12/30 09:22:11;;;;;;;7.25;4.68;;;;;;;3.02;77.68;97567.19;4956647;28;20034;-71
2020/12/30 09:24:38;;;;;;;7.60;4.97;;;;;;;3.20;77.78;97576.44;4956799;29;20023;-72
2020/12/30 09:27:23;;;;;;;9.30;4.68;;;;;;;3.36;77.31;97582.28;4956778;29;20031;-71
2020/12/30 09:30:11;;;;;;;10.35;5.07;;;;;;;3.39;76.55;97578.88;4956735;29;20105;-71
2020/12/30 09:32:37;;;;;;;7.05;4.50;;;;;;;3.46;77.03;97583.91;4956343;29;20082;-71
2020/12/30 09:35:05;;;;;;;8.48;5.18;;;;;;;3.02;77.81;97584.25;4956604;29;20035;-72
2020/12/30 09:37:30;;;;;;;8.60;5.50;;;;;;;3.17;77.50;97579.03;4956650;29;20119;-71
2020/12/30 09:40:13;;;;;;;8.98;5.30;;;;;;;3.21;77.84;97584.97;4956458;29;20524;-72
2020/12/30 09:42:40;;;;;;;11.02;5.60;;;;;;;3.21;78.24;97583.25;4956340;29;20023;-71
2020/12/30 09:45:11;;;;;;;7.85;5.07;;;;;;;3.30;77.87;97583.19;4956470;29;20412;-71
2020/12/30 09:47:38;;;;;;;11.80;5.82;;;;;;;3.44;76.75;97593.31;4956566;29;20072;-71
2020/12/30 09:50:05;;;;;;;8.38;5.32;;;;;;;3.51;77.33;97588.97;4956266;29;20113;-71
2020/12/30 09:52:35;;;;;;;7.65;4.72;;;;;;;3.56;76.08;97598.31;4938971;29;20452;-71
2020/12/30 09:55:00;;;;;;;9.23;5.88;;;;;;;3.49;75.88;97600.97;4955105;28;20436;-71
2020/12/30 09:57:25;;;;;;;9.55;4.72;;;;;;;3.43;75.90;97593.31;4956314;29;20027;-71
2020/12/30 09:59:50;;;;;;;7.88;4.93;;;;;;;3.65;77.03;97597.38;4956091;29;20027;-71
2020/12/30 10:02:16;;;;;;;11.88;5.13;;;;;;;3.79;76.26;97595.53;4955736;28;20035;-71
2020/12/30 10:04:41;;;;;;;10.32;5.50;;;;;;;3.73;76.01;97587.91;4954274;29;20393;-71
2020/12/30 10:07:07;;;;;;;12.00;6.05;;;;;;;3.76;76.43;97595.56;4955882;29;20051;-71
2020/12/30 10:09:32;;;;;;;9.85;4.55;;;;;;;3.63;76.21;97588.88;4955720;28;20029;-71
2020/12/30 10:11:57;;;;;;;8.15;5.10;;;;;;;3.88;75.26;97588.63;4955720;29;20023;-71
2020/12/30 10:14:23;;;;;;;18.27;7.32;;;;;;;4.04;75.30;97583.28;4952041;28;20032;-71
2020/12/30 10:16:48;;;;;;;13.27;7.68;;;;;;;4.05;75.22;97591.84;4947379;29;20448;-71
2020/12/30 10:19:15;;;;;;;11.68;5.03;;;;;;;4.13;76.52;97584.91;4930683;28;20141;-71
2020/12/30 10:21:40;;;;;;;8.75;4.78;;;;;;;4.13;74.30;97584.91;4943922;28;20437;-71
2020/12/30 10:24:06;;;;;;;9.82;4.60;;;;;;;4.11;74.56;97589.22;4946987;29;20043;-72
2020/12/30 10:26:34;;;;;;;7.95;4.45;;;;;;;4.15;74.32;97590.84;4947205;29;20476;-71
2020/12/30 10:29:00;;;;;;;4.75;3.30;;;;;;;4.27;72.00;97593.28;4940918;29;20161;-71
2020/12/30 10:31:26;;;;;;;4.03;3.00;;;;;;;4.16;70.95;97584.00;4943634;28;20230;-71
2020/12/30 10:33:51;;;;;;;3.78;2.05;;;;;;;4.15;69.90;97583.16;4943111;28;20039;-71
2020/12/30 10:36:17;;;;;;;3.58;2.70;;;;;;;4.26;69.25;97581.34;4945927;29;20518;-71
2020/12/30 10:38:42;;;;;;;9.18;3.42;;;;;;;4.23;69.66;97590.78;4944865;29;20413;-71
2020/12/30 10:41:08;;;;;;;7.22;3.50;;;;;;;4.16;71.76;97590.00;4944041;28;20063;-71
2020/12/30 10:43:33;;;;;;;11.77;6.90;;;;;;;4.01;71.38;97590.16;4940467;28;20038;-71
2020/12/30 10:45:58;;;;;;;9.98;6.47;;;;;;;3.96;71.57;97589.38;4944922;28;20029;-71
2020/12/30 10:48:24;;;;;;;9.57;6.00;;;;;;;3.84;70.48;97593.78;4942997;28;20067;-71
2020/12/30 10:50:49;;;;;;;13.38;5.93;;;;;;;4.17;72.40;97594.28;4942935;28;20026;-70
2020/12/30 10:53:14;;;;;;;11.35;6.20;;;;;;;4.25;68.80;97591.59;4940531;28;20042;-71
2020/12/30 10:55:39;;;;;;;13.38;5.75;;;;;;;4.17;71.79;97591.69;4946313;28;20027;-71
2020/12/30 10:58:05;;;;;;;8.05;5.05;;;;;;;4.39;73.02;97590.56;4942327;28;20032;-71
2020/12/30 11:00:30;;;;;;;82.35;25.17;;;;;;;4.46;68.40;97603.31;4944761;28;20031;-71
2020/12/30 11:02:55;;;;;;;157.65;52.63;;;;;;;4.41;69.32;97594.84;4945024;28;20437;-71
2020/12/30 11:05:21;;;;;;;148.00;51.50;;;;;;;4.49;70.28;97598.13;4942373;28;20027;-71
2020/12/30 11:07:46;;;;;;;30.17;9.88;;;;;;;4.49;69.24;97598.13;4942742;28;20031;-72
2020/12/30 11:10:11;;;;;;;93.82;33.83;;;;;;;4.56;69.00;97595.47;4944438;28;20082;-71
2020/12/30 11:12:37;;;;;;;207.88;75.30;;;;;;;4.50;69.13;97599.84;4945596;28;20122;-71
2020/12/30 11:15:07;;;;;;;11.23;4.47;;;;;;;4.62;67.57;97605.66;4945722;28;20118;-71
2020/12/30 11:17:33;;;;;;;6.22;3.90;;;;;;;4.77;68.20;97598.63;4943440;28;20103;-71
2020/12/30 11:19:58;;;;;;;14.73;5.95;;;;;;;4.67;70.69;97597.06;4945926;28;20109;-71
2020/12/30 11:22:27;;;;;;;13.63;6.28;;;;;;;4.78;70.74;97596.03;4945173;28;20033;-71
2020/12/30 11:24:52;;;;;;;14.48;5.68;;;;;;;6.16;65.31;97604.88;4945671;28;20027;-71
2020/12/30 11:27:18;;;;;;;10.95;5.03;;;;;;;6.65;63.05;97595.31;4943947;28;20440;-71
2020/12/30 11:29:43;;;;;;;9.35;4.20;;;;;;;6.56;62.48;97603.22;4942961;28;20484;-71
2020/12/30 11:32:09;;;;;;;8.38;4.78;;;;;;;6.14;64.05;97603.22;4943700;28;20086;-71
2020/12/30 11:34:34;;;;;;;9.25;3.92;;;;;;;5.77;66.49;97598.72;4939985;28;20216;-71
2020/12/30 11:36:59;;;;;;;7.15;4.10;;;;;;;5.58;66.99;97594.78;4943552;28;20079;-71
2020/12/30 11:39:25;;;;;;;8.05;3.85;;;;;;;5.57;67.88;97603.38;4943158;28;20122;-71
2020/12/30 11:41:51;;;;;;;8.43;3.70;;;;;;;5.65;66.96;97597.22;4941115;28;20031;-71
2020/12/30 11:44:17;;;;;;;6.15;4.68;;;;;;;5.60;66.47;97604.16;4945419;29;20038;-71
2020/12/30 11:46:43;;;;;;;8.35;5.03;;;;;;;5.65;66.32;97604.91;4938122;28;20075;-71
2020/12/30 11:49:09;;;;;;;10.80;5.03;;;;;;;5.28;68.55;97602.13;4945705;28;20544;-71
2020/12/30 11:51:38;;;;;;;9.65;4.22;;;;;;;5.20;68.40;97603.97;4942047;28;21244;-71
2020/12/30 11:54:04;;;;;;;4.72;3.42;;;;;;;5.11;68.06;97593.84;4939541;28;20510;-71
2020/12/30 11:56:29;;;;;;;9.55;3.70;;;;;;;5.33;68.31;97596.94;4944275;28;20067;-71
2020/12/30 11:58:54;;;;;;;6.90;3.72;;;;;;;5.83;66.77;97596.03;4940770;28;20022;-71
2020/12/30 12:01:20;;;;;;;13.18;6.32;;;;;;;5.98;65.41;97599.25;4944429;28;20035;-71
2020/12/30 12:03:45;;;;;;;6.63;2.72;;;;;;;5.38;66.60;97598.53;4945223;28;20050;-71
2020/12/30 12:06:11;;;;;;;9.23;3.33;;;;;;;5.74;64.98;97596.22;4943494;28;20031;-71
2020/12/30 12:08:37;;;;;;;7.30;4.05;;;;;;;6.18;63.79;97599.69;4942392;28;20046;-71
2020/12/30 12:11:02;;;;;;;8.20;2.97;;;;;;;5.91;64.61;97599.38;4944910;28;20031;-69
2020/12/30 12:13:27;;;;;;;8.32;3.53;;;;;;;5.78;66.27;97597.00;4945177;28;20039;-70
2020/12/30 12:15:53;;;;;;;20.30;8.05;;;;;;;5.78;65.38;97597.00;4944664;28;20039;-71
2020/12/30 12:18:18;;;;;;;7.50;4.50;;;;;;;5.90;64.96;97597.66;4939682;28;20035;-70
2020/12/30 12:20:43;;;;;;;12.63;6.90;;;;;;;5.97;65.14;97607.84;4938748;28;20054;-71
2020/12/30 12:23:09;;;;;;;3.97;2.75;;;;;;;5.99;65.30;97603.50;4939901;29;20480;-70
2020/12/30 12:25:34;;;;;;;5.35;2.58;;;;;;;6.19;64.75;97598.84;4940025;28;20039;-70
2020/12/30 12:27:59;;;;;;;5.75;2.28;;;;;;;6.31;66.20;97610.59;4940848;29;20031;-71
2020/12/30 12:30:25;;;;;;;7.78;3.15;;;;;;;6.28;64.03;97608.09;4941974;28;20070;-71
2020/12/30 12:32:50;;;;;;;6.32;2.78;;;;;;;6.09;64.68;97610.16;4942827;28;20058;-70
2020/12/30 12:35:15;;;;;;;7.75;3.15;;;;;;;5.77;65.06;97606.44;4941460;29;20036;-70
2020/12/30 12:38:08;;;;;;;4.30;3.17;;;;;;;5.91;65.76;97614.78;4926514;29;20059;-70
2020/12/30 12:40:33;;;;;;;8.25;3.85;;;;;;;5.77;66.88;97610.75;4942502;28;20090;-71
2020/12/30 12:42:59;;;;;;;2.78;2.13;;;;;;;5.72;67.45;97608.25;4942229;28;20496;-71
2020/12/30 12:45:24;;;;;;;5.85;1.88;;;;;;;5.80;68.96;97606.41;4941833;28;20110;-70
2020/12/30 12:47:50;;;;;;;4.53;2.28;;;;;;;5.61;68.16;97608.44;4943475;29;20031;-71
2020/12/30 12:50:15;;;;;;;3.85;2.80;;;;;;;5.57;68.73;97608.53;4942138;28;20115;-70
2020/12/30 12:52:40;;;;;;;20.77;10.95;;;;;;;5.40;68.88;97612.19;4940196;28;20500;-70
2020/12/30 12:55:06;;;;;;;19.60;9.80;;;;;;;5.51;69.17;97609.47;4943416;29;20023;-70
2020/12/30 12:57:31;;;;;;;7.00;3.97;;;;;;;5.56;69.38;97617.94;4940785;28;20027;-70
2020/12/30 12:59:56;;;;;;;22.67;10.63;;;;;;;5.68;68.76;97619.44;4942380;28;20035;-70
2020/12/30 13:02:21;;;;;;;16.10;8.98;;;;;;;5.52;69.06;97606.03;4939767;28;20023;-70
2020/12/30 13:04:47;;;;;;;4.10;2.70;;;;;;;5.57;69.39;97614.50;4944139;29;20030;-70
2020/12/30 13:07:12;;;;;;;3.05;2.10;;;;;;;5.66;69.54;97616.06;4925269;28;21466;-70
2020/12/30 13:09:37;;;;;;;4.25;2.40;;;;;;;5.61;69.02;97620.44;4943073;29;21532;-70
2020/12/30 13:12:03;;;;;;;4.43;3.60;;;;;;;5.63;69.27;97616.13;4939623;28;20035;-70
2020/12/30 13:14:28;;;;;;;5.70;2.08;;;;;;;5.67;69.96;97605.75;4943407;28;20027;-71
2020/12/30 13:16:53;;;;;;;5.45;1.75;;;;;;;5.55;68.43;97617.94;4943887;28;20030;-75
2020/12/30 13:19:20;;;;;;;4.55;1.90;;;;;;;5.54;69.75;97621.41;4942432;28;20027;-74
2020/12/30 13:21:46;;;;;;;7.68;2.45;;;;;;;5.55;69.81;97625.66;4941859;28;20029;-74
2020/12/30 13:24:12;;;;;;;5.57;2.83;;;;;;;5.64;69.35;97626.34;4942497;28;20091;-74
2020/12/30 13:26:37;;;;;;;34.63;15.98;;;;;;;5.56;69.79;97628.22;4942800;28;20043;-74
2020/12/30 13:29:04;;;;;;;5.57;3.17;;;;;;;5.49;69.90;97631.75;4941949;28;20031;-74
2020/12/30 13:31:29;;;;;;;2.13;1.83;;;;;;;5.31;69.65;97627.75;4946800;28;20027;-75
2020/12/30 13:33:55;;;;;;;9.65;4.07;;;;;;;5.38;70.55;97637.06;4945298;28;20041;-77
2020/12/30 13:36:23;;;;;;;11.98;6.22;;;;;;;5.25;70.66;97643.25;4945970;28;20296;-74
2020/12/30 13:38:50;;;;;;;9.30;4.88;;;;;;;5.31;71.06;97643.16;4945503;28;20057;-74
2020/12/30 13:41:16;;;;;;;5.05;2.40;;;;;;;5.39;71.07;97654.16;4944912;28;20086;-74
2020/12/30 13:43:42;;;;;;;4.60;3.35;;;;;;;5.23;70.97;97654.44;4946935;28;20031;-73
2020/12/30 13:46:08;;;;;;;11.57;5.00;;;;;;;5.10;71.65;97659.75;4945747;28;20035;-73
2020/12/30 13:48:34;;;;;;;7.88;4.68;;;;;;;5.10;71.73;97658.91;4945808;28;20038;-73
2020/12/30 13:50:59;;;;;;;10.82;7.47;;;;;;;5.09;72.12;97660.63;4943239;28;20031;-73
2020/12/30 13:53:25;;;;;;;6.00;4.72;;;;;;;5.12;72.67;97657.13;4944137;28;20377;-73
2020/12/30 13:55:51;;;;;;;2.25;2.05;;;;;;;5.07;71.51;97661.50;4943257;28;20031;-73
2020/12/30 13:58:16;;;;;;;4.70;3.00;;;;;;;5.11;71.41;97660.59;4945677;28;20034;-73
2020/12/30 14:00:41;;;;;;;3.08;2.20;;;;;;;5.08;71.38;97660.66;4943438;28;20038;-73
2020/12/30 14:03:07;;;;;;;5.75;2.80;;;;;;;5.04;72.15;97664.13;4943682;28;20046;-74
2020/12/30 14:05:35;;;;;;;6.57;3.03;;;;;;;5.07;72.74;97664.06;4944141;29;20027;-73
2020/12/30 14:08:01;;;;;;;3.33;2.10;;;;;;;5.01;72.58;97662.44;4944845;28;20378;-73
2020/12/30 14:10:26;;;;;;;1.98;1.65;;;;;;;4.91;72.40;97668.56;4943701;28;20125;-73
2020/12/30 14:12:51;;;;;;;3.50;2.47;;;;;;;5.01;72.42;97674.44;4943933;29;20031;-73
2020/12/30 14:15:17;;;;;;;2.63;2.17;;;;;;;4.98;73.14;97675.34;4943256;28;20050;-73
2020/12/30 14:17:42;;;;;;;7.15;2.90;;;;;;;5.01;72.37;97689.81;4944074;28;20426;-73
2020/12/30 14:20:07;;;;;;;2.38;2.13;;;;;;;4.92;72.80;97690.78;4945028;28;20090;-72
2020/12/30 14:22:33;;;;;;;5.82;2.47;;;;;;;4.92;72.95;97689.94;4944732;28;20058;-73
2020/12/30 14:24:58;;;;;;;5.22;2.15;;;;;;;4.82;73.43;97691.78;4943708;28;20031;-73
2020/12/30 14:27:23;;;;;;;7.88;2.33;;;;;;;4.88;73.30;97697.69;4945321;29;20086;-73
2020/12/30 14:29:50;;;;;;;7.57;2.03;;;;;;;4.94;73.71;97698.50;4943745;29;20159;-72
2020/12/30 14:32:15;;;;;;;7.00;2.08;;;;;;;4.94;73.17;97703.63;4945700;28;20056;-73
2020/12/30 14:34:40;;;;;;;6.85;2.33;;;;;;;4.93;73.94;97701.91;4943388;28;20138;-73
2020/12/30 14:37:06;;;;;;;16.27;7.22;;;;;;;4.83;74.26;97703.72;4944779;29;20034;-73
2020/12/30 14:39:31;;;;;;;125.97;42.35;;;;;;;4.90;74.85;97703.66;4943152;28;20039;-73
2020/12/30 14:41:56;;;;;;;179.45;55.97;;;;;;;4.97;73.73;97703.56;4945287;28;20031;-73
2020/12/30 14:44:22;;;;;;;22.15;9.10;;;;;;;4.84;73.86;97714.00;4945181;29;20051;-73
2020/12/30 14:46:48;;;;;;;3.78;2.40;;;;;;;4.82;73.50;97709.75;4945751;28;20101;-73
2020/12/30 14:49:13;;;;;;;4.72;2.35;;;;;;;4.89;73.34;97707.09;4943652;29;20023;-73
2020/12/30 14:51:39;;;;;;;4.40;2.33;;;;;;;4.82;73.37;97718.28;4941707;29;21176;-73
2020/12/30 14:54:05;;;;;;;5.63;2.65;;;;;;;4.91;73.93;97719.91;4943739;28;20023;-72
2020/12/30 14:56:31;;;;;;;19.90;9.30;;;;;;;4.83;73.95;97719.97;4943273;29;20034;-73
2020/12/30 14:58:57;;;;;;;22.27;9.80;;;;;;;4.73;74.54;97731.22;4945296;28;20186;-73
2020/12/30 15:01:25;;;;;;;37.20;16.02;;;;;;;4.72;75.09;97729.53;4944095;28;20169;-73
2020/12/30 15:03:51;;;;;;;17.77;7.43;;;;;;;4.78;73.99;97729.44;4940255;28;20031;-75
2020/12/30 15:06:18;;;;;;;4.95;2.38;;;;;;;4.72;74.02;97732.09;4945617;29;20046;-75
2020/12/30 15:08:44;;;;;;;7.22;4.53;;;;;;;4.74;74.40;97738.09;4945611;28;20074;-75
2020/12/30 15:11:11;;;;;;;18.00;7.45;;;;;;;4.71;74.00;97732.97;4942475;28;20038;-73
2020/12/30 15:13:36;;;;;;;33.25;12.77;;;;;;;4.66;74.62;97744.16;4943629;28;20161;-65
2020/12/30 15:16:02;;;;;;;14.43;6.45;;;;;;;4.62;74.27;97748.47;4944071;28;20134;-69
2020/12/30 15:18:27;;;;;;;6.93;2.97;;;;;;;4.53;74.77;97748.56;4941824;28;20028;-73
2020/12/30 15:20:53;;;;;;;69.82;25.70;;;;;;;4.43;75.22;97752.09;4941522;28;20023;-73
2020/12/30 15:23:19;;;;;;;8.43;4.90;;;;;;;4.34;76.43;97759.00;4943731;28;20437;-73
2020/12/30 15:25:45;;;;;;;11.25;4.93;;;;;;;4.29;77.05;97767.59;4945562;28;20027;-73
2020/12/30 15:28:10;;;;;;;30.02;11.38;;;;;;;4.03;78.07;97772.97;4944013;28;20090;-73
2020/12/30 15:30:35;;;;;;;16.85;6.85;;;;;;;3.85;79.49;97785.06;4940958;28;20518;-73
2020/12/30 15:33:01;;;;;;;30.65;12.50;;;;;;;3.71;81.06;97783.44;4944464;28;20035;-74
2020/12/30 15:35:26;;;;;;;56.28;20.40;;;;;;;3.65;81.23;97791.19;4942248;28;20023;-75
2020/12/30 15:37:54;;;;;;;7.18;3.75;;;;;;;3.80;81.39;97791.91;4944889;28;20044;-74
2020/12/30 15:40:20;;;;;;;5.25;2.33;;;;;;;4.01;81.76;97792.63;4941412;28;20114;-75
2020/12/30 15:42:46;;;;;;;2.33;1.75;;;;;;;3.82;82.38;97789.34;4944752;28;20110;-73
2020/12/30 15:45:11;;;;;;;3.75;2.20;;;;;;;3.82;83.57;97795.34;4944324;28;20660;-73
2020/12/30 15:47:37;;;;;;;1.55;1.45;;;;;;;3.88;82.34;97796.16;4945847;28;20058;-73
2020/12/30 15:50:03;;;;;;;3.08;1.85;;;;;;;3.75;82.97;97800.50;4940885;28;20035;-73
2020/12/30 15:52:28;;;;;;;2.10;1.88;;;;;;;3.75;82.90;97806.47;4944194;28;20487;-73
2020/12/30 15:54:53;;;;;;;3.45;1.60;;;;;;;3.90;81.73;97797.00;4945407;28;20122;-72
2020/12/30 15:57:19;;;;;;;3.45;1.50;;;;;;;3.67;82.97;97804.81;4942724;28;20039;-73
2020/12/30 15:59:44;;;;;;;1.70;1.60;;;;;;;3.74;82.50;97809.06;4942658;28;20031;-73
2020/12/30 16:02:09;;;;;;;2.47;1.90;;;;;;;3.51;84.28;97810.03;4945225;28;20122;-73
2020/12/30 16:04:35;;;;;;;2.92;2.20;;;;;;;3.48;85.26;97809.19;4940399;28;20110;-75
2020/12/30 16:07:00;;;;;;;2.17;1.58;;;;;;;3.51;85.21;97814.31;4944252;28;20035;-73
2020/12/30 16:09:25;;;;;;;3.28;1.92;;;;;;;3.43;85.35;97821.19;4945258;28;20476;-73
2020/12/30 16:11:51;;;;;;;2.05;1.73;;;;;;;3.46;83.88;97819.47;4942584;28;20030;-73
2020/12/30 16:14:16;;;;;;;3.80;2.00;;;;;;;3.44;85.52;97828.03;4943720;28;20401;-73
2020/12/30 16:16:42;;;;;;;3.55;2.30;;;;;;;3.40;86.03;97826.34;4945276;28;20073;-73
2020/12/30 16:19:07;;;;;;;5.13;2.05;;;;;;;3.46;86.02;97823.72;4943856;28;20042;-72
2020/12/30 16:21:32;;;;;;;2.60;1.90;;;;;;;3.38;86.42;97828.03;4942464;28;20037;-73
2020/12/30 16:23:57;;;;;;;3.95;2.78;;;;;;;3.44;86.13;97828.03;4941750;28;20023;-73
2020/12/30 16:26:23;;;;;;;6.43;2.55;;;;;;;3.48;84.61;97834.81;4941855;28;20476;-73
2020/12/30 16:28:48;;;;;;;16.60;7.68;;;;;;;3.45;84.46;97834.84;4941795;28;20086;-73
2020/12/30 16:31:14;;;;;;;46.75;19.10;;;;;;;3.39;84.54;97834.88;4942028;28;20032;-73
2020/12/30 16:33:47;;;;;;;10.93;6.13;;;;;;;3.38;84.57;97836.56;4942786;28;20400;-73
2020/12/30 16:36:12;;;;;;;6.30;4.25;;;;;;;3.28;85.46;97838.31;4944404;29;20082;-73
2020/12/30 16:38:38;;;;;;;6.63;3.80;;;;;;;3.38;85.79;97835.72;4938797;29;20035;-73
2020/12/30 16:41:08;;;;;;;6.13;3.22;;;;;;;3.24;85.68;97846.88;4942762;28;20023;-73
2020/12/30 16:43:34;;;;;;;4.20;2.72;;;;;;;3.22;86.70;97840.91;4944863;29;20121;-73
2020/12/30 16:46:02;;;;;;;5.15;3.42;;;;;;;3.13;86.24;97837.53;4945236;29;20182;-73
2020/12/30 16:48:28;;;;;;;9.25;3.30;;;;;;;3.05;86.61;97847.81;4944816;29;20097;-73
2020/12/30 16:50:54;;;;;;;4.57;3.40;;;;;;;3.04;86.22;97848.63;4942829;28;20449;-73
2020/12/30 16:53:19;;;;;;;42.45;27.55;;;;;;;2.89;86.96;97852.09;4944845;29;20447;-73
2020/12/30 16:55:44;;;;;;;13.05;8.00;;;;;;;3.06;86.08;97841.81;4938985;28;20045;-73
2020/12/30 16:58:10;;;;;;;7.55;4.50;;;;;;;3.15;85.18;97853.75;4945026;29;20523;-72
2020/12/30 17:00:36;;;;;;;11.60;6.95;;;;;;;3.02;86.22;97852.91;4941755;28;20426;-72
2020/12/30 17:03:01;;;;;;;17.27;8.60;;;;;;;3.07;86.18;97853.75;4939621;29;20079;-73
2020/12/30 17:05:27;;;;;;;82.65;30.35;;;;;;;3.02;86.17;97851.22;4948434;29;20039;-73
2020/12/30 17:07:54;;;;;;;61.80;25.83;;;;;;;3.05;85.70;97855.47;4948895;29;20045;-73
2020/12/30 17:10:21;;;;;;;50.50;21.00;;;;;;;3.11;85.33;97855.47;4948229;28;20587;-73
2020/12/30 17:12:46;;;;;;;50.97;26.08;;;;;;;2.99;86.04;97858.03;4948412;29;20039;-73
2020/12/30 17:15:12;;;;;;;42.92;24.30;;;;;;;3.01;86.22;97853.78;4948191;29;20031;-73
2020/12/30 17:17:38;;;;;;;42.65;22.85;;;;;;;2.84;86.40;97856.38;4931110;29;20031;-73
2020/12/30 17:20:04;;;;;;;38.95;22.58;;;;;;;2.86;86.63;97853.84;4948204;29;20046;-73
2020/12/30 17:22:30;;;;;;;29.20;13.85;;;;;;;2.80;87.05;97850.44;4942002;29;20082;-73
2020/12/30 17:24:56;;;;;;;22.52;12.57;;;;;;;2.95;86.34;97861.44;4931037;29;20105;-73
2020/12/30 17:27:21;;;;;;;23.73;12.38;;;;;;;3.03;86.51;97862.28;4942382;29;20037;-73
2020/12/30 17:29:47;;;;;;;20.70;12.63;;;;;;;3.03;86.83;97862.28;4945440;29;20031;-73
2020/12/30 17:32:19;;;;;;;19.75;11.90;;;;;;;3.00;87.02;97864.88;4948041;28;20031;-73
2020/12/30 17:34:44;;;;;;;34.40;20.02;;;;;;;3.05;86.74;97860.59;4943802;29;20030;-74